SWR2TV LSZH-EDDF
Flight info
| Callsign | SWR2TV |
|---|---|
| Flight time | 0h 43m |
| Altitude | 20000 |
| Route | DEGES Z1 SUDEN T164 KOVAN T163 SPESA SPESA5B |
| Aircraft | A320/M-SDE3FGHIRWY/LB1 |
Departure
| Time | 2026-05-04 19:30 |
|---|---|
| Airport | Zürich Airport (LSZH) |
Arrival
| Time | 2026-05-04 20:13 |
|---|---|
| Airport | Frankfurt Main Airport (EDDF) |
| Time | Latitude | Longitude | Altitude | Speed | Heading |
|---|---|---|---|---|---|
| 2026-05-04 19:01 | 47.45408 | 8.56061 | 1407 ft | 0 kts | 187° |
| 2026-05-04 19:21 | 47.45428 | 8.56064 | 1411 ft | 4 kts | 179° |
| 2026-05-04 19:22 | 47.45454 | 8.56060 | 1407 ft | 4 kts | 164° |
| 2026-05-04 19:22 | 47.45478 | 8.56044 | 1410 ft | 4 kts | 136° |
| 2026-05-04 19:22 | 47.45489 | 8.56020 | 1414 ft | 1 kts | 95° |
| 2026-05-04 19:24 | 47.45489 | 8.56022 | 1407 ft | 2 kts | 95° |
| 2026-05-04 19:25 | 47.45484 | 8.56088 | 1411 ft | 8 kts | 95° |
| 2026-05-04 19:25 | 47.45479 | 8.56162 | 1411 ft | 7 kts | 95° |
| 2026-05-04 19:25 | 47.45480 | 8.56219 | 1408 ft | 4 kts | 73° |
| 2026-05-04 19:25 | 47.45509 | 8.56248 | 1413 ft | 8 kts | 10° |
| 2026-05-04 19:26 | 47.45570 | 8.56257 | 1415 ft | 7 kts | 5° |
| 2026-05-04 19:26 | 47.45605 | 8.56262 | 1416 ft | 3 kts | 5° |
| 2026-05-04 19:26 | 47.45617 | 8.56264 | 1413 ft | 1 kts | 5° |
| 2026-05-04 19:26 | 47.45630 | 8.56265 | 1413 ft | 0 kts | 5° |
| 2026-05-04 19:28 | 47.45689 | 8.56274 | 1413 ft | 11 kts | 5° |
| 2026-05-04 19:28 | 47.45714 | 8.56246 | 1416 ft | 0 kts | 284° |
| 2026-05-04 19:28 | 47.45714 | 8.56245 | 1413 ft | 0 kts | 284° |
| 2026-05-04 19:28 | 47.45715 | 8.56240 | 1413 ft | 0 kts | 281° |
| 2026-05-04 19:29 | 47.45726 | 8.56135 | 1413 ft | 38 kts | 276° |
| 2026-05-04 19:29 | 47.45781 | 8.55301 | 1400 ft | 122 kts | 276° |
| 2026-05-04 19:30 | 47.45886 | 8.53808 | 1708 ft | 155 kts | 275° |
| 2026-05-04 19:30 | 47.45998 | 8.52170 | 2461 ft | 165 kts | 275° |
| 2026-05-04 19:30 | 47.46113 | 8.50403 | 3001 ft | 182 kts | 275° |
| 2026-05-04 19:30 | 47.46199 | 8.48443 | 3360 ft | 202 kts | 265° |
| 2026-05-04 19:31 | 47.45682 | 8.46390 | 3653 ft | 227 kts | 240° |
| 2026-05-04 19:31 | 47.44887 | 8.44373 | 4475 ft | 229 kts | 240° |
| 2026-05-04 19:31 | 47.44077 | 8.42316 | 5281 ft | 232 kts | 240° |
| 2026-05-04 19:31 | 47.43276 | 8.40200 | 6117 ft | 235 kts | 241° |
| 2026-05-04 19:32 | 47.42411 | 8.38180 | 6921 ft | 236 kts | 225° |
| 2026-05-04 19:32 | 47.41021 | 8.37001 | 7709 ft | 236 kts | 190° |
| 2026-05-04 19:32 | 47.39346 | 8.37207 | 8424 ft | 241 kts | 154° |
| 2026-05-04 19:32 | 47.38094 | 8.38806 | 9133 ft | 243 kts | 120° |
| 2026-05-04 19:33 | 47.37608 | 8.41127 | 9860 ft | 245 kts | 90° |
| 2026-05-04 19:33 | 47.38012 | 8.43605 | 10634 ft | 248 kts | 60° |
| 2026-05-04 19:33 | 47.38697 | 8.44968 | 11081 ft | 254 kts | 51° |
| 2026-05-04 19:33 | 47.39887 | 8.46977 | 11661 ft | 265 kts | 50° |
| 2026-05-04 19:34 | 47.41114 | 8.49016 | 12447 ft | 264 kts | 50° |
| 2026-05-04 19:34 | 47.42372 | 8.50998 | 13237 ft | 266 kts | 42° |
| 2026-05-04 19:34 | 47.43865 | 8.52627 | 13942 ft | 269 kts | 33° |
| 2026-05-04 19:34 | 47.45358 | 8.54310 | 14603 ft | 271 kts | 49° |
| 2026-05-04 19:35 | 47.46296 | 8.56752 | 14960 ft | 284 kts | 77° |
| 2026-05-04 19:35 | 47.46580 | 8.59735 | 15148 ft | 305 kts | 90° |
| 2026-05-04 19:35 | 47.46564 | 8.62982 | 15307 ft | 327 kts | 94° |
| 2026-05-04 19:35 | 47.46462 | 8.66455 | 15442 ft | 349 kts | 94° |
| 2026-05-04 19:36 | 47.46386 | 8.70155 | 15574 ft | 370 kts | 92° |
| 2026-05-04 19:36 | 47.46387 | 8.74057 | 15739 ft | 388 kts | 90° |
| 2026-05-04 19:36 | 47.46472 | 8.78097 | 16188 ft | 397 kts | 89° |
| 2026-05-04 19:36 | 47.46493 | 8.82201 | 16757 ft | 401 kts | 95° |
| 2026-05-04 19:37 | 47.46114 | 8.86290 | 17320 ft | 404 kts | 102° |
| 2026-05-04 19:37 | 47.45556 | 8.90379 | 17884 ft | 408 kts | 103° |
| 2026-05-04 19:37 | 47.44969 | 8.94502 | 18434 ft | 412 kts | 103° |
| 2026-05-04 19:37 | 47.44365 | 8.98663 | 18982 ft | 416 kts | 103° |
| 2026-05-04 19:38 | 47.43755 | 9.02851 | 19521 ft | 419 kts | 103° |
| 2026-05-04 19:38 | 47.43140 | 9.07066 | 20021 ft | 422 kts | 103° |
| 2026-05-04 19:38 | 47.42517 | 9.11384 | 20521 ft | 426 kts | 102° |
| 2026-05-04 19:38 | 47.42200 | 9.15680 | 20982 ft | 430 kts | 91° |
| 2026-05-04 19:39 | 47.42412 | 9.20102 | 21435 ft | 434 kts | 81° |
| 2026-05-04 19:39 | 47.43186 | 9.24480 | 21882 ft | 438 kts | 70° |
| 2026-05-04 19:39 | 47.44463 | 9.28515 | 22305 ft | 441 kts | 60° |
| 2026-05-04 19:39 | 47.46020 | 9.32437 | 22724 ft | 444 kts | 57° |
| 2026-05-04 19:40 | 47.47883 | 9.36085 | 23121 ft | 447 kts | 47° |
| 2026-05-04 19:40 | 47.50152 | 9.39244 | 23507 ft | 449 kts | 38° |
| 2026-05-04 19:40 | 47.52766 | 9.41790 | 23889 ft | 451 kts | 27° |
| 2026-05-04 19:40 | 47.55641 | 9.43637 | 24252 ft | 452 kts | 18° |
| 2026-05-04 19:41 | 47.58689 | 9.44808 | 24601 ft | 453 kts | 9° |
| 2026-05-04 19:41 | 47.61822 | 9.45304 | 24944 ft | 454 kts | 1° |
| 2026-05-04 19:41 | 47.65000 | 9.45459 | 25283 ft | 456 kts | 1° |
| 2026-05-04 19:41 | 47.68179 | 9.45624 | 25613 ft | 458 kts | 1° |
| 2026-05-04 19:42 | 47.71379 | 9.45802 | 25932 ft | 460 kts | 1° |
| 2026-05-04 19:42 | 47.74587 | 9.45984 | 26241 ft | 462 kts | 1° |
| 2026-05-04 19:42 | 47.77805 | 9.46169 | 26532 ft | 464 kts | 1° |
| 2026-05-04 19:42 | 47.81046 | 9.46341 | 26817 ft | 466 kts | 0° |
| 2026-05-04 19:43 | 47.84287 | 9.46425 | 27087 ft | 467 kts | 359° |
| 2026-05-04 19:43 | 47.87539 | 9.46423 | 27366 ft | 468 kts | 359° |
| 2026-05-04 19:43 | 47.90801 | 9.46368 | 27616 ft | 470 kts | 358° |
| 2026-05-04 19:43 | 47.94074 | 9.46300 | 27853 ft | 471 kts | 358° |
| 2026-05-04 19:44 | 47.97356 | 9.46247 | 27959 ft | 472 kts | 359° |
| 2026-05-04 19:44 | 48.00639 | 9.46216 | 27983 ft | 471 kts | 359° |
| 2026-05-04 19:44 | 48.03921 | 9.46205 | 27981 ft | 471 kts | 359° |
| 2026-05-04 19:44 | 48.07201 | 9.46206 | 27980 ft | 471 kts | 359° |
| 2026-05-04 19:45 | 48.10477 | 9.46211 | 27981 ft | 471 kts | 359° |
| 2026-05-04 19:45 | 48.13780 | 9.46216 | 27980 ft | 471 kts | 359° |
| 2026-05-04 19:45 | 48.17043 | 9.46218 | 27979 ft | 471 kts | 359° |
| 2026-05-04 19:45 | 48.20335 | 9.46218 | 27981 ft | 471 kts | 359° |
| 2026-05-04 19:46 | 48.23575 | 9.46219 | 27980 ft | 471 kts | 359° |
| 2026-05-04 19:46 | 48.26856 | 9.46219 | 27980 ft | 471 kts | 359° |
| 2026-05-04 19:46 | 48.30143 | 9.46220 | 27981 ft | 471 kts | 359° |
| 2026-05-04 19:46 | 48.33429 | 9.46217 | 27980 ft | 471 kts | 359° |
| 2026-05-04 19:47 | 48.36704 | 9.46215 | 27978 ft | 471 kts | 359° |
| 2026-05-04 19:47 | 48.39989 | 9.46219 | 27981 ft | 471 kts | 359° |
| 2026-05-04 19:47 | 48.43259 | 9.46226 | 27979 ft | 471 kts | 358° |
| 2026-05-04 19:47 | 48.46492 | 9.45782 | 27978 ft | 470 kts | 348° |
| 2026-05-04 19:48 | 48.49660 | 9.44431 | 27981 ft | 468 kts | 337° |
| 2026-05-04 19:48 | 48.52580 | 9.42261 | 27982 ft | 466 kts | 327° |
| 2026-05-04 19:48 | 48.55176 | 9.39377 | 27982 ft | 464 kts | 317° |
| 2026-05-04 19:48 | 48.57405 | 9.35860 | 27981 ft | 463 kts | 307° |
| 2026-05-04 19:49 | 48.59250 | 9.31884 | 27982 ft | 462 kts | 304° |
| 2026-05-04 19:49 | 48.61310 | 9.28249 | 27979 ft | 464 kts | 315° |
| 2026-05-04 19:49 | 48.63875 | 9.25157 | 27972 ft | 466 kts | 325° |
| 2026-05-04 19:49 | 48.66700 | 9.22762 | 27971 ft | 468 kts | 334° |
| 2026-05-04 19:50 | 48.69689 | 9.20796 | 27973 ft | 468 kts | 335° |
| 2026-05-04 19:50 | 48.72676 | 9.18835 | 27972 ft | 468 kts | 335° |
| 2026-05-04 19:50 | 48.75664 | 9.16852 | 27978 ft | 468 kts | 335° |
| 2026-05-04 19:50 | 48.78647 | 9.14853 | 27980 ft | 468 kts | 335° |
| 2026-05-04 19:51 | 48.81632 | 9.12850 | 27981 ft | 468 kts | 335° |
| 2026-05-04 19:51 | 48.84641 | 9.10941 | 27977 ft | 469 kts | 339° |
| 2026-05-04 19:51 | 48.87799 | 9.09686 | 27979 ft | 471 kts | 351° |
| 2026-05-04 19:51 | 48.91080 | 9.09531 | 27981 ft | 473 kts | 5° |
| 2026-05-04 19:52 | 48.94347 | 9.10259 | 27851 ft | 477 kts | 8° |
| 2026-05-04 19:52 | 48.97639 | 9.11086 | 27602 ft | 479 kts | 8° |
| 2026-05-04 19:52 | 49.00929 | 9.11952 | 27349 ft | 480 kts | 9° |
| 2026-05-04 19:52 | 49.04177 | 9.12831 | 27093 ft | 466 kts | 9° |
| 2026-05-04 19:53 | 49.07359 | 9.13692 | 26837 ft | 451 kts | 9° |
| 2026-05-04 19:53 | 49.10404 | 9.14511 | 26583 ft | 438 kts | 9° |
| 2026-05-04 19:53 | 49.13364 | 9.15300 | 26335 ft | 425 kts | 9° |
| 2026-05-04 19:53 | 49.16240 | 9.16065 | 26084 ft | 414 kts | 8° |
| 2026-05-04 19:54 | 49.19041 | 9.16805 | 25837 ft | 403 kts | 8° |
| 2026-05-04 19:54 | 49.21778 | 9.17524 | 25585 ft | 394 kts | 8° |
| 2026-05-04 19:54 | 49.24457 | 9.18228 | 25330 ft | 385 kts | 8° |
| 2026-05-04 19:54 | 49.27070 | 9.18921 | 25081 ft | 378 kts | 8° |
| 2026-05-04 19:55 | 49.29650 | 9.19608 | 24831 ft | 375 kts | 8° |
| 2026-05-04 19:55 | 49.32172 | 9.20281 | 24577 ft | 373 kts | 8° |
| 2026-05-04 19:55 | 49.34722 | 9.20963 | 24332 ft | 371 kts | 8° |
| 2026-05-04 19:55 | 49.37267 | 9.21644 | 23772 ft | 373 kts | 8° |
| 2026-05-04 19:56 | 49.39849 | 9.22332 | 23222 ft | 375 kts | 8° |
| 2026-05-04 19:56 | 49.42390 | 9.23012 | 22878 ft | 369 kts | 8° |
| 2026-05-04 19:56 | 49.44903 | 9.23685 | 22467 ft | 366 kts | 8° |
| 2026-05-04 19:56 | 49.47413 | 9.24362 | 22049 ft | 363 kts | 9° |
| 2026-05-04 19:57 | 49.49890 | 9.25032 | 21638 ft | 361 kts | 8° |
| 2026-05-04 19:57 | 49.52358 | 9.25699 | 21212 ft | 359 kts | 8° |
| 2026-05-04 19:57 | 49.54805 | 9.26356 | 20789 ft | 356 kts | 8° |
| 2026-05-04 19:57 | 49.57224 | 9.27008 | 20161 ft | 351 kts | 8° |
| 2026-05-04 19:58 | 49.59619 | 9.27652 | 19434 ft | 347 kts | 8° |
| 2026-05-04 19:58 | 49.61990 | 9.28284 | 18716 ft | 344 kts | 8° |
| 2026-05-04 19:58 | 49.64336 | 9.28910 | 18007 ft | 340 kts | 8° |
| 2026-05-04 19:58 | 49.66657 | 9.29533 | 17330 ft | 336 kts | 8° |
| 2026-05-04 19:59 | 49.68949 | 9.30152 | 16642 ft | 333 kts | 9° |
| 2026-05-04 19:59 | 49.71222 | 9.30764 | 15962 ft | 330 kts | 9° |
| 2026-05-04 19:59 | 49.73477 | 9.31373 | 15301 ft | 327 kts | 9° |
| 2026-05-04 19:59 | 49.75708 | 9.31986 | 14623 ft | 324 kts | 9° |
| 2026-05-04 20:00 | 49.77890 | 9.32586 | 13973 ft | 322 kts | 9° |
| 2026-05-04 20:00 | 49.80097 | 9.33037 | 13313 ft | 317 kts | 359° |
| 2026-05-04 20:00 | 49.82265 | 9.32675 | 12656 ft | 312 kts | 344° |
| 2026-05-04 20:00 | 49.84267 | 9.31475 | 12003 ft | 307 kts | 329° |
| 2026-05-04 20:01 | 49.85991 | 9.29574 | 11326 ft | 302 kts | 314° |
| 2026-05-04 20:01 | 49.87336 | 9.27119 | 10735 ft | 298 kts | 300° |
| 2026-05-04 20:01 | 49.88222 | 9.24276 | 10625 ft | 293 kts | 287° |
| 2026-05-04 20:01 | 49.88817 | 9.21252 | 10507 ft | 292 kts | 285° |
| 2026-05-04 20:02 | 49.89397 | 9.18228 | 10383 ft | 292 kts | 285° |
| 2026-05-04 20:02 | 49.89975 | 9.15208 | 10257 ft | 292 kts | 285° |
| 2026-05-04 20:02 | 49.90553 | 9.12185 | 10128 ft | 292 kts | 285° |
| 2026-05-04 20:02 | 49.91125 | 9.09173 | 10008 ft | 291 kts | 285° |
| 2026-05-04 20:03 | 49.91697 | 9.06155 | 9879 ft | 291 kts | 285° |
| 2026-05-04 20:03 | 49.92267 | 9.03150 | 9751 ft | 291 kts | 285° |
| 2026-05-04 20:03 | 49.92834 | 9.00137 | 9416 ft | 290 kts | 285° |
| 2026-05-04 20:03 | 49.93397 | 8.97136 | 9088 ft | 288 kts | 285° |
| 2026-05-04 20:04 | 49.93957 | 8.94151 | 8763 ft | 287 kts | 285° |
| 2026-05-04 20:04 | 49.94657 | 8.91258 | 8431 ft | 286 kts | 301° |
| 2026-05-04 20:04 | 49.96002 | 8.89015 | 8105 ft | 286 kts | 326° |
| 2026-05-04 20:04 | 49.97788 | 8.87826 | 7776 ft | 285 kts | 349° |
| 2026-05-04 20:05 | 49.99749 | 8.87852 | 7459 ft | 283 kts | 13° |
| 2026-05-04 20:05 | 50.01528 | 8.89102 | 7110 ft | 281 kts | 38° |
| 2026-05-04 20:05 | 50.02817 | 8.91362 | 6757 ft | 280 kts | 62° |
| 2026-05-04 20:05 | 50.03539 | 8.94162 | 6408 ft | 279 kts | 71° |
| 2026-05-04 20:06 | 50.04186 | 8.97000 | 6058 ft | 277 kts | 71° |
| 2026-05-04 20:06 | 50.04820 | 8.99817 | 5707 ft | 276 kts | 71° |
| 2026-05-04 20:06 | 50.05509 | 9.02591 | 5353 ft | 274 kts | 60° |
| 2026-05-04 20:06 | 50.06772 | 9.04747 | 5000 ft | 271 kts | 32° |
| 2026-05-04 20:07 | 50.08523 | 9.05710 | 4650 ft | 268 kts | 3° |
| 2026-05-04 20:07 | 50.10330 | 9.05259 | 4333 ft | 264 kts | 335° |
| 2026-05-04 20:07 | 50.11834 | 9.03640 | 4100 ft | 264 kts | 312° |
| 2026-05-04 20:07 | 50.12810 | 9.01245 | 3998 ft | 263 kts | 290° |
| 2026-05-04 20:08 | 50.13124 | 8.98446 | 4014 ft | 262 kts | 268° |
| 2026-05-04 20:08 | 50.12772 | 8.95775 | 4001 ft | 244 kts | 250° |
| 2026-05-04 20:08 | 50.12203 | 8.93372 | 4017 ft | 236 kts | 250° |
| 2026-05-04 20:08 | 50.11644 | 8.90987 | 4016 ft | 234 kts | 250° |
| 2026-05-04 20:09 | 50.11086 | 8.88606 | 4016 ft | 231 kts | 250° |
| 2026-05-04 20:09 | 50.10552 | 8.86331 | 3960 ft | 218 kts | 250° |
| 2026-05-04 20:09 | 50.10037 | 8.84143 | 3736 ft | 214 kts | 250° |
| 2026-05-04 20:09 | 50.09521 | 8.81949 | 3459 ft | 210 kts | 250° |
| 2026-05-04 20:10 | 50.09183 | 8.80517 | 3279 ft | 204 kts | 251° |
| 2026-05-04 20:10 | 50.08698 | 8.78459 | 3039 ft | 198 kts | 251° |
| 2026-05-04 20:10 | 50.08227 | 8.76466 | 2769 ft | 194 kts | 250° |
| 2026-05-04 20:10 | 50.07766 | 8.74518 | 2499 ft | 190 kts | 250° |
| 2026-05-04 20:11 | 50.07320 | 8.72630 | 2237 ft | 186 kts | 250° |
| 2026-05-04 20:11 | 50.06875 | 8.70750 | 2000 ft | 185 kts | 250° |
| 2026-05-04 20:11 | 50.06432 | 8.68878 | 1758 ft | 184 kts | 250° |
| 2026-05-04 20:11 | 50.06033 | 8.66991 | 1537 ft | 182 kts | 256° |
| 2026-05-04 20:12 | 50.05841 | 8.65163 | 1304 ft | 163 kts | 263° |
| 2026-05-04 20:12 | 50.05656 | 8.63485 | 1011 ft | 152 kts | 252° |
| 2026-05-04 20:12 | 50.05289 | 8.62006 | 816 ft | 142 kts | 249° |
| 2026-05-04 20:12 | 50.04946 | 8.60581 | 679 ft | 139 kts | 251° |
| 2026-05-04 20:13 | 50.04624 | 8.59173 | 515 ft | 138 kts | 250° |
| 2026-05-04 20:13 | 50.04291 | 8.57793 | 364 ft | 130 kts | 250° |
| 2026-05-04 20:13 | 50.04036 | 8.56700 | 360 ft | 79 kts | 249° |
| 2026-05-04 20:13 | 50.03913 | 8.56182 | 352 ft | 45 kts | 250° |
| 2026-05-04 20:14 | 50.03885 | 8.55900 | 354 ft | 20 kts | 270° |
| 2026-05-04 20:14 | 50.03892 | 8.55764 | 349 ft | 10 kts | 276° |
| 2026-05-04 20:14 | 50.03895 | 8.55715 | 356 ft | 0 kts | 276° |
| 2026-05-04 20:14 | 50.03898 | 8.55700 | 348 ft | 0 kts | 284° |
| 2026-05-04 20:16 | 50.03898 | 8.55699 | 348 ft | 0 kts | 284° |
| 2026-05-04 20:16 | 50.03904 | 8.55671 | 354 ft | 3 kts | 293° |
| 2026-05-04 20:16 | 50.03918 | 8.55645 | 348 ft | 3 kts | 316° |
| 2026-05-04 20:16 | 50.03928 | 8.55635 | 352 ft | 0 kts | 332° |
| 2026-05-04 20:17 | 50.03929 | 8.55635 | 348 ft | 0 kts | 332° |
| 2026-05-04 20:17 | 50.03959 | 8.55628 | 348 ft | 7 kts | 18° |
| 2026-05-04 20:17 | 50.03988 | 8.55696 | 356 ft | 12 kts | 69° |
| 2026-05-04 20:17 | 50.04000 | 8.55745 | 357 ft | 0 kts | 69° |
| 2026-05-04 20:19 | 50.04001 | 8.55749 | 350 ft | 3 kts | 69° |
| 2026-05-04 20:20 | 50.04020 | 8.55830 | 350 ft | 6 kts | 70° |
| 2026-05-04 20:20 | 50.04030 | 8.55873 | 350 ft | 6 kts | 70° |
| 2026-05-04 20:20 | 50.04064 | 8.56016 | 353 ft | 23 kts | 70° |
| 2026-05-04 20:20 | 50.04139 | 8.56334 | 353 ft | 37 kts | 69° |
| 2026-05-04 20:21 | 50.04229 | 8.56699 | 363 ft | 36 kts | 69° |
| 2026-05-04 20:21 | 50.04312 | 8.57060 | 364 ft | 35 kts | 70° |
| 2026-05-04 20:21 | 50.04475 | 8.57735 | 367 ft | 21 kts | 71° |
| 2026-05-04 20:22 | 50.04515 | 8.57904 | 364 ft | 15 kts | 69° |
| 2026-05-04 20:22 | 50.04522 | 8.57932 | 364 ft | 0 kts | 69° |
| 2026-05-04 20:22 | 50.04530 | 8.57966 | 364 ft | 7 kts | 69° |
| 2026-05-04 20:22 | 50.04573 | 8.58032 | 363 ft | 13 kts | 11° |
| 2026-05-04 20:23 | 50.04668 | 8.57981 | 360 ft | 18 kts | 340° |
| 2026-05-04 20:23 | 50.04771 | 8.57974 | 359 ft | 9 kts | 55° |
| 2026-05-04 20:23 | 50.04803 | 8.58067 | 361 ft | 13 kts | 61° |
| 2026-05-04 20:23 | 50.04840 | 8.58212 | 361 ft | 17 kts | 71° |
| 2026-05-04 20:24 | 50.04887 | 8.58412 | 364 ft | 22 kts | 70° |
| 2026-05-04 20:24 | 50.04948 | 8.58665 | 360 ft | 28 kts | 69° |
| 2026-05-04 20:24 | 50.04997 | 8.58868 | 360 ft | 10 kts | 69° |
| 2026-05-04 20:24 | 50.05019 | 8.58960 | 362 ft | 7 kts | 69° |
| 2026-05-04 20:25 | 50.05026 | 8.59038 | 360 ft | 7 kts | 118° |
| 2026-05-04 20:25 | 50.05001 | 8.59053 | 364 ft | 2 kts | 160° |
| 2026-05-04 20:25 | 50.04996 | 8.59055 | 361 ft | 2 kts | 159° |
| 2026-05-04 20:25 | 50.04967 | 8.59072 | 362 ft | 1 kts | 160° |
| 2026-05-04 20:26 | 50.04962 | 8.59075 | 362 ft | 1 kts | 160° |
| 2026-05-04 20:26 | 50.04960 | 8.59076 | 366 ft | 0 kts | 160° |